Bodega Marine Reserve, California Weather observations

Data are for 10 minute period ending at time listed.
 Day   Time   Solar   Ave.   Ave.  Ave.  Vector  Max.   Baro.   Total    
  of    of     Rad.   Air    Rel.  Wind   Wind   Wind  Press.  Precip.   
Year   Day            Temp.  Hum.  Speed  Dir.   Gust                    
2017   (PST)  Kw/m2    F      %     mph   deg.    mph    mb.     in.     
-------------------------------------------------------------------------
  83   17:10   0.17   55.3    84    4.0   253     5.7   1018.6    0.00 
  83   17:20   0.17   55.3    84    3.2   253     5.3   1018.6    0.00 
  83   17:30   0.13   55.3    84    3.9   235     5.4   1018.6    0.00 
  83   17:40   0.14   55.1    84    4.3   233     6.1   1018.6    0.00 
  83   17:50   0.12   55.3    84    4.4   234     7.0   1018.6    0.00 
  83   18:00   0.10   55.0    84    4.4   225     5.8   1018.6    0.00 
  83   18:10   0.11   55.0    84    3.7   215     5.1   1018.3    0.00 
  83   18:20   0.08   54.8    84    4.1   227     5.3   1018.3    0.00 
  83   18:30   0.07   54.7    84    4.4   225     5.3   1018.3    0.00 
  83   18:40   0.06   54.5    84    3.9   240     5.4   1018.3    0.00 
  83   18:50   0.04   54.4    85    3.3   251     4.6   1018.3    0.00 
  83   19:00   0.04   54.2    85    3.0   254     4.2   1018.3    0.00 
  83   19:10   0.03   54.1    85    2.6   246     3.7   1018.3    0.00 
  83   19:20   0.02   53.6    86    3.1   245     4.1   1018.3    0.00 
  83   19:30   0.01   53.2    86    2.6   265     3.6   1018.0    0.00 
  83   19:40   0.00   53.0    87    2.9   250     3.7   1018.3    0.00 
  83   19:50   0.00   52.9    87    2.5   248     3.1   1018.3    0.00 
  83   20:00   0.00   52.8    88    1.9   253     2.8   1018.3    0.00 
  83   20:10   100.00  99999.0   99999  99999.0   99999   99999.0   99999.0   99999.00 
  83   20:20   100.00  99999.0   99999  99999.0   99999   99999.0   99999.0   99999.00 
  83   20:30   100.00  99999.0   99999  99999.0   99999   99999.0   99999.0   99999.00 
  83   20:40   100.00  99999.0   99999  99999.0   99999   99999.0   99999.0   99999.00 
  83   20:50   100.00  99999.0   99999  99999.0   99999   99999.0   99999.0   99999.00 
  83   21:00   100.00  99999.0   99999  99999.0   99999   99999.0   99999.0   99999.00 
  83   21:10   100.00  99999.0   99999  99999.0   99999   99999.0   99999.0   99999.00 
  83   21:20   100.00  99999.0   99999  99999.0   99999   99999.0   99999.0   99999.00 
  83   21:30   100.00  99999.0   99999  99999.0   99999   99999.0   99999.0   99999.00 
  83   21:40   100.00  99999.0   99999  99999.0   99999   99999.0   99999.0   99999.00 
  83   21:50   100.00  99999.0   99999  99999.0   99999   99999.0   99999.0   99999.00 
  83   22:00   23.54  99999.0   99999  -24.8   99999   99999.0   99999.0   99999.00 
  83   22:10   100.00  99999.0   99999  99999.0   99999   99999.0   99999.0   99999.00 
  83   22:20   100.00  99999.0   99999  99999.0   99999   99999.0   99999.0   99999.00 
  83   22:30   100.00  99999.0   99999  99999.0   99999   99999.0   99999.0   99999.00 
  83   22:40   100.00  99999.0   99999  99999.0   99999   99999.0   99999.0   99999.00 
  83   22:50   100.00  99999.0   99999  99999.0   99999   99999.0   99999.0   99999.00 
  83   23:00   0.00  9219.2    23  -23.5     5   -16.2   1474.4   16.36 
  83   23:10   100.00  99999.0   99999  99999.0   99999   99999.0   99999.0   99999.00 
  83   23:20   100.00  99999.0   99999  99999.0   99999   99999.0   99999.0   99999.00 
  83   23:30   100.00  99999.0   99999  99999.0   99999   99999.0   99999.0   99999.00 
  83   23:40   100.00  99999.0   99999  99999.0   99999   99999.0   99999.0   99999.00 
  83   23:50   100.00  99999.0   99999  99999.0   99999   99999.0   99999.0   99999.00 
  84    0:00   0.00   48.7    93    2.6   296     3.1   1019.0    0.00 
  84    0:10   100.00  99999.0   99999  99999.0   99999   99999.0   99999.0   99999.00 
  84    0:20   100.00  99999.0   99999  99999.0   99999   99999.0   99999.0   99999.00 
  84    0:30   100.00  99999.0   99999  99999.0   99999   99999.0   99999.0   99999.00 
  84    0:40   100.00  99999.0   99999  99999.0   99999   99999.0   99999.0   99999.00 
  84    0:50   0.00   49.3    93    1.3   308     1.7   1019.0    0.00 
  84    1:00   0.00   48.7    94    2.2   356     3.0   1019.0    0.00 
  84    1:10   100.00  99999.0   99999  99999.0   99999   99999.0   99999.0   99999.00 
  84    1:20   100.00  99999.0   99999  99999.0   99999   99999.0   99999.0   99999.00 
  84    1:30   100.00  99999.0   99999  99999.0   99999   99999.0   99999.0   99999.00 
  84    1:40   100.00  99999.0   99999  99999.0   99999   99999.0   99999.0   99999.00 
  84    1:50   100.00  99999.0   99999  99999.0   99999   99999.0   99999.0   99999.00 
  84    2:00   0.00  99999.0   99999    4.2   322     4.7   99999.0   99999.00 
  84    2:10   0.00   47.0    95    3.1   311     4.0   1018.6    0.00 
  84    2:20   0.00   47.0    94    3.3   293     4.2   1018.6    0.00 
  84    2:30   0.00   46.7    94    3.4   297     4.2   1018.6    0.00 
  84    2:40   0.00   46.9    94    3.8   314     4.5   1018.6    0.00 
  84    2:50   0.00   46.7    94    4.5   319     5.9   1018.6    0.00 
  84    3:00   0.00   46.3    94    4.8   332     5.6   1018.6    0.00 
  84    3:10   0.00   46.2    94    5.0   337     5.6   1018.6    0.00 
  84    3:20   0.00   46.0    94    5.1   342     6.0   1018.3    0.00 
  84    3:30   0.00   46.7    95    3.8   326     5.3   1018.3    0.00 
  84    3:40   0.00   47.2    94    4.4   314     5.3   1018.3    0.00 
  84    3:50   0.00   47.3    94    4.2   309     5.0   1018.0    0.00 
  84    4:00   0.00   47.2    94    4.7   305     5.6   1018.0    0.00 
  84    4:10   0.00   47.1    94    4.8   309     5.8   1018.0    0.00 
  84    4:20   0.00   47.0    94    4.3   308     5.3   1018.0    0.00 
  84    4:30   0.00   47.2    94    3.6   307     4.2   1018.0    0.00 
  84    4:40   0.00   46.8    94    3.4   313     4.1   1018.0    0.00 
  84    4:50   0.00   46.7    94    3.6   330     4.2   1018.0    0.00 
  84    5:00   0.00   46.8    94    3.6   328     4.7   1018.0    0.00 
  84    5:10   0.00   46.7    94    2.7   330     3.4   1018.0    0.00 
  84    5:20   0.00   46.2    94    0.6     4     2.7   1018.0    0.00 
  84    5:30   0.00   46.3    94    1.0   129     2.0   1017.6    0.00 
  84    5:40   0.00   46.5    94    1.4   142     1.8   1018.0    0.00 
  84    5:50   0.00   45.9    94    1.1   167     1.8   1018.0    0.00 
  84    6:00   0.00   44.8    93    0.4   182     0.9   1018.0    0.00 
  84    6:10   100.00  99999.0   99999  99999.0   99999   99999.0   99999.0   99999.00 
  84    6:20   100.00  99999.0   99999  99999.0   99999   99999.0   99999.0   99999.00 
  84    6:30   100.00  99999.0   99999  99999.0   99999   99999.0   99999.0   99999.00 
  84    6:40   100.00  99999.0   99999  99999.0   99999   99999.0   99999.0   99999.00 
  84    6:50   100.00  99999.0   99999  99999.0   99999   99999.0   99999.0   99999.00 
  84    7:00   0.00   44.2    93    0.9   118     1.8   99999.0   99999.00 
  84    7:10   0.00   73.5   -36    1.4   120   509.2     0.0   23.54 
  84    7:20   0.01   44.3    94    0.0   117     0.4   1018.0    0.00 
  84    7:30   0.02   44.0    95    0.1   186     1.1   1018.0    0.00 
  84    7:40   0.06   44.5    94    0.2   195     0.9   1018.0    0.00 
  84    7:50   0.09   45.4    95    1.2    98     2.8   1018.3    0.00 
  84    8:00   0.12   47.5    94    1.8   110     3.0   1018.3    0.00 
  84    8:10   0.15   48.8    94    1.1   123     1.8   1018.3    0.00 
  84    8:20   0.15   49.5    93    1.4   139     2.2   1018.3    0.00 
  84    8:30   0.17   49.6    93    2.2   136     2.8   1018.3    0.00 
  84    8:40   0.16   49.9    92    0.8   121     2.3   1018.3    0.00 
  84    8:50   0.19   50.6    91    1.1   108     1.6   1018.6    0.00 
  84    9:00   0.24   51.4    91    0.5   113     1.2   1018.6    0.00 
  84    9:10   0.29   53.1    90    1.0    38     3.6   1018.6    0.00 
  84    9:20   0.33   54.0    89    2.4   264     4.4   1018.6    0.00 
  84    9:30   0.35   53.7    88    3.7   263     5.6   1019.0    0.00 
  84    9:40   0.39   53.9    87    5.3   282     7.1   1019.0    0.00 
  84    9:50   0.36   54.2    86    5.2   285     8.2   1019.3    0.00 
  84   10:00   0.33   54.3    86    5.3   298     8.4   1019.3    0.00 
  84   10:10   0.39   54.4    86    6.7   310     9.5   1019.6    0.00 
  84   10:20   0.52   54.9    85    7.1   308    11.3   1019.6    0.00 
  84   10:30   0.48   55.1    84    7.6   310    11.4   1019.6    0.00 
  84   10:40   0.54   55.1    84    8.2   311    11.9   1019.6    0.00 
  84   10:50   0.59   55.5    83    8.4   306    12.6   1019.6    0.00 
  84   11:00   0.61   55.4    82    9.2   305    13.4   1020.0    0.01 
  84   11:10   100.00  99999.0   99999  99999.0   99999   99999.0   99999.0   99999.00 
  84   11:20   100.00  99999.0   99999  99999.0   99999   99999.0   99999.0   99999.00 
  84   11:30   100.00  99999.0   99999  99999.0   99999   99999.0   99999.0   99999.00 
  84   11:40   100.00  99999.0   99999  99999.0   99999   99999.0   99999.0   99999.00 
  84   11:50   100.00  99999.0   99999  99999.0   99999   99999.0   99999.0   99999.00 
  84   12:00   0.71   57.3    79   11.6   305    16.4   1020.0   99999.00 
  84   12:10   0.73   57.6    78   11.4   303    16.1   1020.0    0.00 
  84   12:20   0.74   57.3    79   11.1   289    15.2   1019.6    0.00 
  84   12:30   0.75   57.8    77   11.4   293    15.9   1019.6    0.00 
  84   12:40   0.76   58.0    78   11.8   287    15.8   1019.6    0.00 
  84   12:50   0.77   57.8    78   12.5   286    16.5   1019.6    0.00 
  84   13:00   0.77   58.2    78   11.9   284    16.8   1019.6    0.00 
  84   13:10   0.77   58.3    78   11.8   286    17.1   1019.6    0.00 
  84   13:20   0.77   58.5    77   11.3   288    16.3   1019.6    0.00 
  84   13:30   0.75   58.3    76   12.3   288    16.1   1019.6    0.00 
  84   13:40   0.74   58.2    76   12.6   286    15.6   1019.6    0.00 
  84   13:50   0.76   58.2    76   12.8   286    17.1   1019.6    0.00 
  84   14:00   0.76   58.4    75   12.5   293    17.3   1019.6    0.00 
  84   14:10   0.67   58.6    73   12.4   294    15.7   1019.3    0.00 
  84   14:20   0.55   57.6    75   12.9   293    16.6   1019.3    0.00 
  84   14:30   0.57   57.1    77   13.1   293    17.2   1019.3    0.00 
  84   14:40   0.78   58.2    75   14.5   293    18.7   1019.3    0.00 
  84   14:50   0.73   58.3    74   15.4   289    20.0   1019.3    0.00 
  84   15:00   0.70   58.2    75   14.0   293    18.3   1019.3    0.00 
  84   15:10   0.67   58.2    74   13.9   291    18.0   1019.0    0.00 
  84   15:20   0.66   58.4    74   12.6   292    17.5   1019.0    0.00 
  84   15:30   0.64   58.3    73   14.1   293    18.3   1019.0    0.00 
  84   15:40   0.53   57.8    74   13.5   289    17.0   1019.0    0.00 
  84   15:50   0.62   58.0    75   12.9   288    17.9   1018.6    0.00 
  84   16:00   0.61   58.2    75   12.8   290    17.6   1018.6    0.00 
  84   16:10   0.56   58.1    74   14.6   290    19.0   1018.6    0.00 
  84   16:20   0.48   57.2    75   14.8   295    19.4   1018.6    0.00 
  84   16:30   0.51   57.6    75   13.9   292    18.7   1018.6    0.00 
  84   16:40   0.45   57.0    75   14.6   295    18.9   1018.6    0.00 
  84   16:50   0.45   57.2    74   13.3   296    18.3   1018.6    0.00 
  84   17:00   0.39   56.9    73   14.0   296    19.0   1018.3    0.00 

Return to Bodega Marine Reserve graphs page.


Western Regional Climate Center,wrcc@dri.edu